createdAt,value
2018-04-13T00:01:03.116Z,10.00
2018-04-13T00:03:32.334Z,10.10
2018-04-13T00:06:01.637Z,10.48
2018-04-13T00:08:30.896Z,10.22
2018-04-13T00:11:00.286Z,9.90
2018-04-13T00:13:29.474Z,9.82
2018-04-13T00:15:58.591Z,10.01
2018-04-13T00:18:27.834Z,10.28
2018-04-13T00:20:57.265Z,10.18
2018-04-13T00:23:26.397Z,9.94
2018-04-13T00:25:55.437Z,10.01
2018-04-13T00:28:24.824Z,10.59
2018-04-13T00:30:54.021Z,10.60
2018-04-13T00:33:23.173Z,10.22
2018-04-13T00:35:52.560Z,9.99
2018-04-13T00:38:21.623Z,9.88
2018-04-13T00:40:50.888Z,10.06
2018-04-13T00:43:20.046Z,9.93
2018-04-13T00:45:49.436Z,10.51
2018-04-13T00:48:18.546Z,10.17
2018-04-13T00:50:47.793Z,9.88
2018-04-13T00:53:28.354Z,9.79
2018-04-13T00:55:57.568Z,9.91
2018-04-13T01:01:01.900Z,10.73
2018-04-13T01:03:30.953Z,10.77
2018-04-13T01:06:00.030Z,10.62
2018-04-13T01:08:29.171Z,10.85
2018-04-13T01:10:58.327Z,10.16
2018-04-13T01:13:27.567Z,9.92
2018-04-13T01:15:56.632Z,10.58
2018-04-13T01:18:25.758Z,10.20
2018-04-13T01:20:54.890Z,9.76
2018-04-13T01:23:24.023Z,9.74
2018-04-13T01:25:53.276Z,9.59
2018-04-13T01:28:22.350Z,9.62
2018-04-13T01:30:51.770Z,9.61
2018-04-13T01:33:20.817Z,9.68
2018-04-13T01:35:49.825Z,9.80
2018-04-13T01:38:19.080Z,9.81
2018-04-13T01:40:48.379Z,9.84
2018-04-13T01:43:17.546Z,10.60
2018-04-13T01:45:46.954Z,10.79
2018-04-13T01:48:16.206Z,10.31
2018-04-13T01:50:45.278Z,9.94
2018-04-13T01:53:14.455Z,9.67
2018-04-13T01:55:43.708Z,9.66
2018-04-13T01:58:12.821Z,9.63
2018-04-13T02:00:42.362Z,10.24
2018-04-13T02:03:11.691Z,9.93
2018-04-13T02:05:40.906Z,9.66
2018-04-13T02:08:10.075Z,9.49
2018-04-13T02:10:39.168Z,9.50
2018-04-13T02:13:08.656Z,9.55
2018-04-13T02:15:37.764Z,9.62
2018-04-13T02:18:06.921Z,9.64
2018-04-13T02:20:36.168Z,9.62
2018-04-13T02:23:05.327Z,9.62
2018-04-13T02:25:34.509Z,9.57
2018-04-13T02:28:03.621Z,9.47
2018-04-13T02:30:32.828Z,9.43
2018-04-13T02:33:02.057Z,9.57
2018-04-13T02:35:31.129Z,9.61
2018-04-13T02:38:00.211Z,9.48
2018-04-13T02:40:29.304Z,9.71
2018-04-13T02:42:58.381Z,9.69
2018-04-13T02:45:27.613Z,9.68
2018-04-13T02:47:56.803Z,10.04
2018-04-13T02:50:25.914Z,10.43
2018-04-13T02:52:54.868Z,10.26
2018-04-13T02:55:23.951Z,9.79
2018-04-13T02:57:52.928Z,9.59
2018-04-13T03:00:22.219Z,9.62
2018-04-13T03:05:27.035Z,9.94
2018-04-13T03:07:56.162Z,10.22
2018-04-13T03:10:25.230Z,10.21
2018-04-13T03:12:54.368Z,9.79
2018-04-13T03:15:23.626Z,9.90
2018-04-13T03:17:53.070Z,9.80
2018-04-13T03:20:22.446Z,9.79
2018-04-13T03:22:51.474Z,9.77
2018-04-13T03:25:20.523Z,9.83
2018-04-13T03:27:49.615Z,9.89
2018-04-13T03:30:18.903Z,9.82
2018-04-13T03:32:48.009Z,9.68
2018-04-13T03:35:17.127Z,9.67
2018-04-13T03:37:46.355Z,9.72
2018-04-13T03:40:15.553Z,9.61
2018-04-13T03:42:44.481Z,9.53
2018-04-13T03:45:13.521Z,9.64
2018-04-13T03:47:42.671Z,9.70
2018-04-13T03:50:11.885Z,9.65
2018-04-13T03:52:41.274Z,9.55
2018-04-13T03:55:10.359Z,9.55
2018-04-13T03:57:39.465Z,9.53
2018-04-13T04:00:08.604Z,9.60
2018-04-13T04:02:37.860Z,9.67
2018-04-13T04:05:07.049Z,9.72
2018-04-13T04:07:36.262Z,9.65
2018-04-13T04:10:05.441Z,9.76
2018-04-13T04:12:34.797Z,9.90
2018-04-13T04:15:03.856Z,10.25
2018-04-13T04:17:33.161Z,10.86
2018-04-13T04:20:13.969Z,10.60
2018-04-13T04:22:54.187Z,10.14
2018-04-13T04:25:34.461Z,10.76
2018-04-13T04:28:03.713Z,10.52
2018-04-13T04:30:32.796Z,10.13
2018-04-13T04:33:02.139Z,10.57
2018-04-13T04:35:31.286Z,10.87
2018-04-13T04:38:00.516Z,11.25
2018-04-13T04:40:29.859Z,10.56
2018-04-13T04:42:58.863Z,10.93
2018-04-13T04:45:28.085Z,10.45
2018-04-13T04:47:57.359Z,10.67
2018-04-13T04:50:26.339Z,11.08
2018-04-13T04:52:55.567Z,11.16
2018-04-13T04:55:24.665Z,10.43
2018-04-13T04:57:53.714Z,10.38
2018-04-13T05:00:22.809Z,10.65
2018-04-13T05:02:51.871Z,10.70
2018-04-13T05:05:21.436Z,10.64
2018-04-13T05:07:50.613Z,10.68
2018-04-13T05:10:19.624Z,10.77
2018-04-13T05:12:48.952Z,11.09
2018-04-13T05:15:18.171Z,10.68
2018-04-13T05:17:47.295Z,10.28
2018-04-13T05:20:16.337Z,10.22
2018-04-13T05:22:45.400Z,10.96
2018-04-13T05:25:14.757Z,11.00
2018-04-13T05:27:44.218Z,10.80
2018-04-13T05:30:13.232Z,10.92
2018-04-13T05:32:42.321Z,10.79
2018-04-13T05:35:11.744Z,10.52
2018-04-13T05:37:40.878Z,10.65
2018-04-13T05:40:09.995Z,10.41
2018-04-13T05:42:39.419Z,10.73
2018-04-13T05:45:08.540Z,10.70
2018-04-13T05:47:37.685Z,10.88
2018-04-13T05:50:06.873Z,10.96
2018-04-13T05:52:36.024Z,11.05
2018-04-13T05:55:05.186Z,11.12
2018-04-13T05:57:34.193Z,11.30
2018-04-13T06:00:03.524Z,10.60
2018-04-13T06:02:32.623Z,11.48
2018-04-13T06:05:02.224Z,11.31
2018-04-13T06:07:31.316Z,11.97
2018-04-13T06:10:00.468Z,11.29
2018-04-13T06:12:29.707Z,11.58
2018-04-13T06:14:58.760Z,11.04
2018-04-13T06:17:27.948Z,11.33
2018-04-13T06:19:57.107Z,11.24
2018-04-13T06:22:26.422Z,12.18
2018-04-13T06:24:55.825Z,11.34
2018-04-13T06:27:24.935Z,10.48
2018-04-13T06:29:54.319Z,11.23
2018-04-13T06:32:23.396Z,11.97
2018-04-13T06:34:52.613Z,12.02
2018-04-13T06:37:21.811Z,11.55
2018-04-13T06:39:51.220Z,12.27
2018-04-13T06:42:20.417Z,11.86
2018-04-13T06:44:49.492Z,12.02
2018-04-13T06:47:18.440Z,11.30
2018-04-13T06:49:47.724Z,11.51
2018-04-13T06:52:16.753Z,11.96
2018-04-13T06:54:46.044Z,12.32
2018-04-13T06:57:15.165Z,12.41
2018-04-13T06:59:44.375Z,11.86
2018-04-13T07:02:13.433Z,11.79
2018-04-13T07:04:42.783Z,12.16
2018-04-13T07:07:11.947Z,12.19
2018-04-13T07:09:41.131Z,11.64
2018-04-13T07:12:10.271Z,12.42
2018-04-13T07:14:39.513Z,11.83
2018-04-13T07:17:08.907Z,12.05
2018-04-13T07:19:37.967Z,12.58
2018-04-13T07:22:07.164Z,12.57
2018-04-13T07:24:36.303Z,12.80
2018-04-13T07:27:05.726Z,12.21
2018-04-13T07:29:35.231Z,11.55
2018-04-13T07:32:04.572Z,12.90
2018-04-13T07:34:33.807Z,12.55
2018-04-13T07:37:03.014Z,12.67
2018-04-13T07:39:32.314Z,12.65
2018-04-13T07:42:01.403Z,12.67
2018-04-13T07:44:30.678Z,12.59
2018-04-13T07:46:59.668Z,12.87
2018-04-13T07:49:28.843Z,13.05
2018-04-13T07:51:58.073Z,12.51
2018-04-13T07:54:27.314Z,12.28
2018-04-13T07:56:56.618Z,12.81
2018-04-13T07:59:25.863Z,13.07
2018-04-13T08:01:54.960Z,13.01
2018-04-13T08:04:24.156Z,13.00
2018-04-13T08:06:53.413Z,12.21
2018-04-13T08:09:23.265Z,12.36
2018-04-13T08:11:52.768Z,12.07
2018-04-13T08:14:22.031Z,12.35
2018-04-13T08:16:51.362Z,12.60
2018-04-13T08:19:20.611Z,12.16
2018-04-13T08:21:49.667Z,11.88
2018-04-13T08:24:18.868Z,11.84
2018-04-13T08:26:48.203Z,11.69
2018-04-13T08:29:17.463Z,12.00
2018-04-13T08:31:46.872Z,11.99
2018-04-13T08:34:15.968Z,11.87
2018-04-13T08:36:45.183Z,11.57
2018-04-13T08:39:14.391Z,12.17
2018-04-13T08:41:43.625Z,11.93
2018-04-13T08:44:12.828Z,12.27
2018-04-13T08:46:42.057Z,12.03
2018-04-13T08:49:11.602Z,11.87
2018-04-13T08:51:40.968Z,12.46
2018-04-13T08:54:10.039Z,12.83
2018-04-13T08:56:39.164Z,12.17
2018-04-13T08:59:08.303Z,13.00
2018-04-13T09:01:37.469Z,12.91
2018-04-13T09:04:06.667Z,12.79
2018-04-13T09:06:35.843Z,13.01
2018-04-13T09:09:05.013Z,13.03
2018-04-13T09:11:34.213Z,12.42
2018-04-13T09:14:03.700Z,12.06
2018-04-13T09:16:32.733Z,12.29
2018-04-13T09:19:01.880Z,12.44
2018-04-13T09:21:31.044Z,12.09
2018-04-13T09:24:00.284Z,12.28
2018-04-13T09:26:29.505Z,12.41
2018-04-13T09:28:58.636Z,12.77
2018-04-13T09:31:27.890Z,12.37
2018-04-13T09:33:57.037Z,12.80
2018-04-13T09:36:26.272Z,12.88
2018-04-13T09:38:55.389Z,12.81
2018-04-13T09:41:24.532Z,12.66
2018-04-13T09:43:53.895Z,12.34
2018-04-13T09:46:22.859Z,12.58
2018-04-13T09:48:51.988Z,12.56
2018-04-13T09:51:21.030Z,12.59
2018-04-13T09:53:50.234Z,12.99
2018-04-13T09:56:19.529Z,12.88
2018-04-13T09:58:48.643Z,12.97
2018-04-13T10:01:17.746Z,12.72
2018-04-13T10:03:50.025Z,12.36
2018-04-13T10:06:19.305Z,12.50
2018-04-13T10:08:48.511Z,12.57
2018-04-13T10:11:17.614Z,12.32
2018-04-13T10:13:46.687Z,12.59
2018-04-13T10:16:16.020Z,12.62
2018-04-13T10:18:45.437Z,13.57
2018-04-13T10:21:14.637Z,13.00
2018-04-13T10:23:43.675Z,13.31
2018-04-13T10:26:12.883Z,13.68
2018-04-13T10:28:41.757Z,13.97
2018-04-13T10:31:10.747Z,13.21
2018-04-13T10:33:39.848Z,12.84
2018-04-13T10:36:09.079Z,12.99
2018-04-13T10:38:38.348Z,12.54
2018-04-13T10:41:07.656Z,12.85
2018-04-13T10:43:36.981Z,12.61
2018-04-13T10:46:06.253Z,12.77
2018-04-13T10:48:35.516Z,12.88
2018-04-13T10:51:04.756Z,12.83
2018-04-13T10:53:34.419Z,12.81
2018-04-13T10:56:03.825Z,12.96
2018-04-13T10:58:32.854Z,13.68
2018-04-13T11:01:01.876Z,13.02
2018-04-13T11:03:31.051Z,13.29
2018-04-13T11:06:00.261Z,13.41
2018-04-13T11:08:29.348Z,13.32
2018-04-13T11:10:58.343Z,13.49
2018-04-13T11:13:27.535Z,13.54
2018-04-13T11:15:56.693Z,13.11
2018-04-13T11:18:25.697Z,12.97
2018-04-13T11:20:54.783Z,13.00
2018-04-13T11:23:24.127Z,12.86
2018-04-13T11:25:53.334Z,12.94
2018-04-13T11:28:22.676Z,13.22
2018-04-13T11:30:51.529Z,13.56
2018-04-13T11:33:20.729Z,13.38
2018-04-13T11:35:49.820Z,13.03
2018-04-13T11:38:19.014Z,13.72
2018-04-13T11:40:48.548Z,13.38
2018-04-13T11:43:17.671Z,13.82
2018-04-13T11:45:47.048Z,14.00
2018-04-13T11:48:16.343Z,14.04
2018-04-13T11:50:45.412Z,13.69
2018-04-13T11:53:14.554Z,12.75
2018-04-13T11:55:43.509Z,12.77
2018-04-13T11:58:12.555Z,13.64
2018-04-13T12:00:41.643Z,13.32
2018-04-13T12:03:10.625Z,13.56
2018-04-13T12:05:39.669Z,13.71
2018-04-13T12:08:08.726Z,13.65
2018-04-13T12:10:38.030Z,13.09
2018-04-13T12:13:07.276Z,13.24
2018-04-13T12:15:36.580Z,13.42
2018-04-13T12:18:05.721Z,13.12
2018-04-13T12:20:34.976Z,13.26
2018-04-13T12:23:04.171Z,12.82
2018-04-13T12:25:33.517Z,12.85
2018-04-13T12:28:02.730Z,13.00
2018-04-13T12:30:31.831Z,13.19
2018-04-13T12:33:01.043Z,13.58
2018-04-13T12:35:30.239Z,13.32
2018-04-13T12:37:59.303Z,12.86
2018-04-13T12:40:28.470Z,12.98
2018-04-13T12:42:57.661Z,13.05
2018-04-13T12:45:26.815Z,12.86
2018-04-13T12:47:56.016Z,13.02
2018-04-13T12:50:25.256Z,12.79
2018-04-13T12:52:54.709Z,12.50
2018-04-13T12:55:24.013Z,12.38
2018-04-13T12:57:52.969Z,13.09
2018-04-13T13:00:22.010Z,12.88
2018-04-13T13:02:51.191Z,12.73
2018-04-13T13:05:20.239Z,12.57
2018-04-13T13:07:49.353Z,12.77
2018-04-13T13:10:18.422Z,12.37
2018-04-13T13:12:47.620Z,12.89
2018-04-13T13:15:16.841Z,12.52
2018-04-13T13:17:45.917Z,12.69
2018-04-13T13:20:15.056Z,12.12
2018-04-13T13:22:44.221Z,11.99
2018-04-13T13:25:13.423Z,12.21
2018-04-13T13:27:42.670Z,11.97
2018-04-13T13:30:11.725Z,12.35
2018-04-13T13:32:40.913Z,12.53
2018-04-13T13:35:10.116Z,12.32
2018-04-13T13:37:39.266Z,12.27
2018-04-13T13:40:08.451Z,12.20
2018-04-13T13:42:37.826Z,12.48
2018-04-13T13:45:06.819Z,11.94
2018-04-13T13:47:35.960Z,12.23
2018-04-13T13:50:04.976Z,11.62
2018-04-13T13:52:34.469Z,11.84
2018-04-13T13:55:03.603Z,11.43
2018-04-13T13:57:32.704Z,12.40
2018-04-13T14:00:02.056Z,12.38
2018-04-13T14:02:31.807Z,12.52
2018-04-13T14:05:01.004Z,12.68
2018-04-13T14:07:30.162Z,12.19
2018-04-13T14:09:59.303Z,11.83
2018-04-13T14:12:28.422Z,11.87
2018-04-13T14:14:58.183Z,11.58
2018-04-13T14:17:27.288Z,11.61
2018-04-13T14:19:56.484Z,11.68
2018-04-13T14:22:25.888Z,11.71
2018-04-13T14:24:55.108Z,11.56
2018-04-13T14:27:24.185Z,11.76
2018-04-13T14:29:53.473Z,11.49
2018-04-13T14:32:22.497Z,11.41
2018-04-13T14:34:51.615Z,11.67
2018-04-13T14:37:20.640Z,11.60
2018-04-13T14:39:49.837Z,11.40
2018-04-13T14:42:19.065Z,11.40
2018-04-13T14:44:48.025Z,11.10
2018-04-13T14:47:16.873Z,10.99
2018-04-13T14:49:45.909Z,10.72
2018-04-13T14:52:14.880Z,10.86
2018-04-13T14:54:44.445Z,10.84
2018-04-13T14:57:13.439Z,10.92
2018-04-13T14:59:42.571Z,11.12
2018-04-13T15:02:11.675Z,10.96
2018-04-13T15:04:40.604Z,11.21
2018-04-13T15:07:09.588Z,10.88
2018-04-13T15:09:38.607Z,10.81
2018-04-13T15:12:07.515Z,10.61
2018-04-13T15:14:36.436Z,10.50
2018-04-13T15:17:05.385Z,10.55
2018-04-13T15:19:34.320Z,10.49
2018-04-13T15:22:03.242Z,10.51
2018-04-13T15:24:32.212Z,10.57
2018-04-13T15:27:01.089Z,10.47
2018-04-13T15:29:30.017Z,10.50
2018-04-13T15:31:58.947Z,10.57
2018-04-13T15:34:27.994Z,10.40
2018-04-13T15:36:57.059Z,10.20
2018-04-13T15:39:26.771Z,10.41
2018-04-13T15:41:55.686Z,10.35
2018-04-13T15:44:24.620Z,10.00
2018-04-13T15:46:53.400Z,10.06
2018-04-13T15:49:22.527Z,9.95
2018-04-13T15:51:51.554Z,10.11
2018-04-13T15:54:20.359Z,10.08
2018-04-13T15:56:49.675Z,10.05
2018-04-13T15:59:18.952Z,10.22
2018-04-13T16:01:48.155Z,10.14
2018-04-13T16:04:17.027Z,10.10
2018-04-13T16:06:46.154Z,9.83
2018-04-13T16:09:15.006Z,10.06
2018-04-13T16:11:43.939Z,9.98
2018-04-13T16:14:12.773Z,10.12
2018-04-13T16:16:41.681Z,9.95
2018-04-13T16:19:10.492Z,9.99
2018-04-13T16:21:39.469Z,10.28
2018-04-13T16:24:08.355Z,10.00
2018-04-13T16:26:37.157Z,9.88
2018-04-13T16:29:06.051Z,10.03
2018-04-13T16:31:34.930Z,9.94
2018-04-13T16:34:04.964Z,9.73
2018-04-13T16:36:33.858Z,9.96
2018-04-13T16:39:02.798Z,9.76
2018-04-13T16:41:31.568Z,9.83
2018-04-13T16:44:00.396Z,10.01
2018-04-13T16:46:29.440Z,10.12
2018-04-13T16:48:58.368Z,9.91
2018-04-13T16:51:27.505Z,9.87
2018-04-13T16:53:56.488Z,9.85
2018-04-13T16:56:25.378Z,9.96
2018-04-13T16:58:54.249Z,9.81
2018-04-13T17:01:23.159Z,10.01
2018-04-13T17:03:52.107Z,9.94
2018-04-13T17:06:20.996Z,9.95
2018-04-13T17:08:49.799Z,9.97
2018-04-13T17:11:18.797Z,9.96
2018-04-13T17:13:47.674Z,10.00
2018-04-13T17:16:16.727Z,9.90
2018-04-13T17:18:45.742Z,9.98
2018-04-13T17:21:14.564Z,9.89
2018-04-13T17:23:43.487Z,9.99
2018-04-13T17:26:12.380Z,10.08
2018-04-13T17:28:41.293Z,10.18
2018-04-13T17:31:10.161Z,10.22
2018-04-13T17:33:38.972Z,9.79
2018-04-13T17:36:07.840Z,10.00
2018-04-13T17:38:36.884Z,10.15
2018-04-13T17:41:05.825Z,9.85
2018-04-13T17:43:34.736Z,9.93
2018-04-13T17:46:03.664Z,9.99
2018-04-13T17:48:32.573Z,10.00
2018-04-13T17:51:01.946Z,9.79
2018-04-13T17:53:30.892Z,9.76
2018-04-13T17:55:59.683Z,9.88
2018-04-13T17:58:28.524Z,9.99
2018-04-13T18:00:57.428Z,9.96
2018-04-13T18:03:26.241Z,10.10
2018-04-13T18:05:55.307Z,10.15
2018-04-13T18:08:24.190Z,10.01
2018-04-13T18:10:53.240Z,9.90
2018-04-13T18:13:22.078Z,10.00
2018-04-13T18:15:51.234Z,9.88
2018-04-13T18:18:20.394Z,9.94
2018-04-13T18:20:49.340Z,9.85
2018-04-13T18:23:18.161Z,9.81
2018-04-13T18:25:47.097Z,9.96
2018-04-13T18:28:16.038Z,10.03
2018-04-13T18:30:44.821Z,9.83
2018-04-13T18:33:13.669Z,9.93
2018-04-13T18:35:42.612Z,9.90
2018-04-13T18:38:11.573Z,9.83
2018-04-13T18:40:40.440Z,10.02
2018-04-13T18:43:09.341Z,9.85
2018-04-13T18:45:38.134Z,10.02
2018-04-13T18:48:07.060Z,9.97
2018-04-13T18:50:35.936Z,9.89
2018-04-13T18:53:04.724Z,9.83
2018-04-13T18:55:33.613Z,10.10
2018-04-13T18:58:02.417Z,10.23
2018-04-13T19:00:31.573Z,9.96
2018-04-13T19:03:00.479Z,9.88
2018-04-13T19:05:29.272Z,9.94
2018-04-13T19:07:58.137Z,10.02
2018-04-13T19:10:26.917Z,10.16
2018-04-13T19:12:56.037Z,10.02
2018-04-13T19:15:24.946Z,10.28
2018-04-13T19:17:53.828Z,10.24
2018-04-13T19:20:22.858Z,10.17
2018-04-13T19:22:51.798Z,9.84
2018-04-13T19:25:20.650Z,10.00
2018-04-13T19:27:49.485Z,10.35
2018-04-13T19:30:18.521Z,10.50
2018-04-13T19:32:47.379Z,10.20
2018-04-13T19:35:16.556Z,10.06
2018-04-13T19:37:45.351Z,10.12
2018-04-13T19:40:14.385Z,10.05
2018-04-13T19:42:43.167Z,10.19
2018-04-13T19:45:11.973Z,9.97
2018-04-13T19:47:40.952Z,10.02
2018-04-13T19:50:09.860Z,10.31
2018-04-13T19:52:38.735Z,9.79
2018-04-13T19:55:07.906Z,10.21
2018-04-13T19:57:36.683Z,10.38
2018-04-13T20:00:05.579Z,10.34
2018-04-13T20:02:34.391Z,10.33
2018-04-13T20:05:03.205Z,10.54
2018-04-13T20:07:32.048Z,10.17
2018-04-13T20:10:00.940Z,10.30
2018-04-13T20:12:29.779Z,10.53
2018-04-13T20:14:58.601Z,10.32
2018-04-13T20:17:27.744Z,10.47
2018-04-13T20:19:56.749Z,10.20
2018-04-13T20:22:25.796Z,10.19
2018-04-13T20:24:54.621Z,9.95
2018-04-13T20:27:23.531Z,10.13
2018-04-13T20:29:52.536Z,9.93
2018-04-13T20:32:21.352Z,9.90
2018-04-13T20:34:50.771Z,10.23
2018-04-13T20:37:19.606Z,10.59
2018-04-13T20:39:48.544Z,10.36
2018-04-13T20:42:17.368Z,10.09
2018-04-13T20:44:46.232Z,10.04
2018-04-13T20:47:15.126Z,10.18
2018-04-13T20:49:43.960Z,10.19
2018-04-13T20:52:13.152Z,10.76
2018-04-13T20:54:41.976Z,10.62
2018-04-13T20:57:10.925Z,10.09
2018-04-13T20:59:39.932Z,10.22
2018-04-13T21:02:08.931Z,10.55
2018-04-13T21:04:37.921Z,10.43
2018-04-13T21:07:06.873Z,10.10
2018-04-13T21:09:35.911Z,10.22
2018-04-13T21:12:05.053Z,10.42
2018-04-13T21:14:33.998Z,10.36
2018-04-13T21:17:03.158Z,10.44
2018-04-13T21:19:32.190Z,10.35
2018-04-13T21:22:00.963Z,10.15
2018-04-13T21:24:29.807Z,10.27
2018-04-13T21:26:58.752Z,10.03
2018-04-13T21:29:27.710Z,10.08
2018-04-13T21:31:56.640Z,9.93
2018-04-13T21:34:25.533Z,10.52
2018-04-13T21:36:54.480Z,10.23
2018-04-13T21:39:23.408Z,10.18
2018-04-13T21:41:52.500Z,10.38
2018-04-13T21:44:21.465Z,10.74
2018-04-13T21:46:50.348Z,10.38
2018-04-13T21:49:19.289Z,10.18
2018-04-13T21:51:48.258Z,10.44
2018-04-13T21:54:17.076Z,10.02
2018-04-13T21:56:45.913Z,9.98
2018-04-13T21:59:14.910Z,10.19
2018-04-13T22:01:43.792Z,9.95
2018-04-13T22:04:12.903Z,9.87
2018-04-13T22:06:41.689Z,9.74
2018-04-13T22:09:10.724Z,9.90
2018-04-13T22:11:39.668Z,10.13
2018-04-13T22:14:20.171Z,10.06
2018-04-13T22:16:49.184Z,9.80
2018-04-13T22:19:18.137Z,10.18
2018-04-13T22:21:47.004Z,10.18
2018-04-13T22:24:15.896Z,9.97
2018-04-13T22:26:44.848Z,10.21
2018-04-13T22:29:13.823Z,10.10
2018-04-13T22:31:42.928Z,10.18
2018-04-13T22:34:11.781Z,10.26
2018-04-13T22:36:41.026Z,10.35
2018-04-13T22:39:09.855Z,10.29
2018-04-13T22:41:38.916Z,10.49
2018-04-13T22:44:07.820Z,10.43
2018-04-13T22:46:36.752Z,10.32
2018-04-13T22:49:05.682Z,10.19
2018-04-13T22:51:35.432Z,9.88
2018-04-13T22:54:04.201Z,10.16
2018-04-13T22:56:33.360Z,10.01
2018-04-13T22:59:02.397Z,10.34
2018-04-13T23:01:31.260Z,9.96
2018-04-13T23:04:01.024Z,10.02
2018-04-13T23:06:30.133Z,10.15
2018-04-13T23:08:59.165Z,10.09
2018-04-13T23:11:28.208Z,9.98
2018-04-13T23:13:57.304Z,9.92
2018-04-13T23:16:26.458Z,9.67
2018-04-13T23:18:55.559Z,9.89
2018-04-13T23:21:24.627Z,10.00
2018-04-13T23:23:53.748Z,10.03
2018-04-13T23:26:22.801Z,9.88
2018-04-13T23:28:52.135Z,9.65
2018-04-13T23:31:21.241Z,9.89
2018-04-13T23:33:50.280Z,10.25
2018-04-13T23:36:19.936Z,10.24
2018-04-13T23:38:48.981Z,9.91
2018-04-13T23:41:18.079Z,10.16
2018-04-13T23:43:47.241Z,10.10
2018-04-13T23:46:16.381Z,10.08
2018-04-13T23:48:45.371Z,9.81
2018-04-13T23:51:14.564Z,9.93
2018-04-13T23:53:43.720Z,9.88
2018-04-13T23:56:13.021Z,10.07
2018-04-13T23:58:42.078Z,9.75
